XNO282T EHAM-EGGD
Flight info
| Callsign | XNO282T |
|---|---|
| Flight time | 0h 58m |
| Altitude | 34000 |
| Route | IDRID L980 LAM L179 ICTAM |
| Aircraft | A319/M-SDE3FGHIRWY/LB1 |
Departure
| Time | 2026-05-04 20:01 |
|---|---|
| Airport | Amsterdam Airport Schiphol (EHAM) |
Arrival
| Time | 2026-05-04 20:59 |
|---|---|
| Airport | Bristol Airport (EGGD) |
| Time | Latitude | Longitude | Altitude | Speed | Heading |
|---|---|---|---|---|---|
| 2026-05-04 19:21 | 52.31027 | 4.75459 | -2 ft | 0 kts | 147° |
| 2026-05-04 19:41 | 52.31028 | 4.75458 | -2 ft | 4 kts | 147° |
| 2026-05-04 19:42 | 52.31042 | 4.75444 | -2 ft | 4 kts | 140° |
| 2026-05-04 19:42 | 52.31058 | 4.75412 | -2 ft | 4 kts | 105° |
| 2026-05-04 19:42 | 52.31057 | 4.75377 | -2 ft | 2 kts | 57° |
| 2026-05-04 19:42 | 52.31055 | 4.75370 | -2 ft | 0 kts | 57° |
| 2026-05-04 19:46 | 52.31068 | 4.75405 | -2 ft | 8 kts | 57° |
| 2026-05-04 19:46 | 52.31106 | 4.75480 | -2 ft | 9 kts | 38° |
| 2026-05-04 19:47 | 52.31145 | 4.75495 | -2 ft | 4 kts | 357° |
| 2026-05-04 19:47 | 52.31155 | 4.75494 | -2 ft | 0 kts | 357° |
| 2026-05-04 19:47 | 52.31158 | 4.75494 | -2 ft | 1 kts | 357° |
| 2026-05-04 19:48 | 52.31179 | 4.75492 | -2 ft | 6 kts | 357° |
| 2026-05-04 19:48 | 52.31243 | 4.75487 | -2 ft | 12 kts | 356° |
| 2026-05-04 19:48 | 52.31344 | 4.75476 | -2 ft | 12 kts | 357° |
| 2026-05-04 19:48 | 52.31419 | 4.75470 | -2 ft | 11 kts | 357° |
| 2026-05-04 19:49 | 52.31492 | 4.75461 | -3 ft | 8 kts | 346° |
| 2026-05-04 19:49 | 52.31511 | 4.75378 | -3 ft | 9 kts | 267° |
| 2026-05-04 19:49 | 52.31506 | 4.75265 | -3 ft | 11 kts | 266° |
| 2026-05-04 19:49 | 52.31502 | 4.75138 | -3 ft | 12 kts | 266° |
| 2026-05-04 19:50 | 52.31498 | 4.75000 | -3 ft | 13 kts | 267° |
| 2026-05-04 19:50 | 52.31493 | 4.74849 | -2 ft | 14 kts | 266° |
| 2026-05-04 19:50 | 52.31488 | 4.74699 | -2 ft | 13 kts | 267° |
| 2026-05-04 19:50 | 52.31483 | 4.74548 | -2 ft | 14 kts | 266° |
| 2026-05-04 19:51 | 52.31476 | 4.74394 | -2 ft | 10 kts | 266° |
| 2026-05-04 19:51 | 52.31506 | 4.74302 | -2 ft | 10 kts | 333° |
| 2026-05-04 19:51 | 52.31577 | 4.74298 | 0 ft | 9 kts | 4° |
| 2026-05-04 19:51 | 52.31646 | 4.74304 | 1 ft | 13 kts | 3° |
| 2026-05-04 19:52 | 52.31755 | 4.74313 | -2 ft | 18 kts | 3° |
| 2026-05-04 19:52 | 52.31892 | 4.74326 | -6 ft | 19 kts | 3° |
| 2026-05-04 19:52 | 52.31993 | 4.74333 | -6 ft | 13 kts | 353° |
| 2026-05-04 19:52 | 52.32031 | 4.74213 | -6 ft | 13 kts | 272° |
| 2026-05-04 19:53 | 52.32036 | 4.74048 | -5 ft | 17 kts | 273° |
| 2026-05-04 19:53 | 52.32044 | 4.73850 | -1 ft | 18 kts | 274° |
| 2026-05-04 19:53 | 52.32052 | 4.73641 | 1 ft | 19 kts | 273° |
| 2026-05-04 19:53 | 52.32064 | 4.73429 | 2 ft | 19 kts | 287° |
| 2026-05-04 19:54 | 52.32116 | 4.73315 | 0 ft | 20 kts | 321° |
| 2026-05-04 19:54 | 52.32222 | 4.73167 | -1 ft | 21 kts | 320° |
| 2026-05-04 19:54 | 52.32339 | 4.73007 | -4 ft | 22 kts | 317° |
| 2026-05-04 19:54 | 52.32453 | 4.72840 | -3 ft | 22 kts | 320° |
| 2026-05-04 19:55 | 52.32572 | 4.72676 | -3 ft | 22 kts | 319° |
| 2026-05-04 19:55 | 52.32683 | 4.72511 | 0 ft | 21 kts | 313° |
| 2026-05-04 19:55 | 52.32778 | 4.72333 | 0 ft | 21 kts | 311° |
| 2026-05-04 19:55 | 52.32880 | 4.72147 | -3 ft | 26 kts | 312° |
| 2026-05-04 19:56 | 52.33017 | 4.71894 | -2 ft | 30 kts | 313° |
| 2026-05-04 19:56 | 52.33130 | 4.71684 | -1 ft | 18 kts | 306° |
| 2026-05-04 19:56 | 52.33133 | 4.71493 | -1 ft | 18 kts | 233° |
| 2026-05-04 19:56 | 52.33039 | 4.71355 | -2 ft | 19 kts | 221° |
| 2026-05-04 19:57 | 52.32936 | 4.71207 | -2 ft | 18 kts | 222° |
| 2026-05-04 19:57 | 52.32868 | 4.71087 | -4 ft | 8 kts | 247° |
| 2026-05-04 19:57 | 52.32864 | 4.71053 | -4 ft | 0 kts | 266° |
| 2026-05-04 19:59 | 52.32864 | 4.71047 | -4 ft | 2 kts | 266° |
| 2026-05-04 19:59 | 52.32863 | 4.71008 | -4 ft | 6 kts | 271° |
| 2026-05-04 19:59 | 52.32877 | 4.70919 | -3 ft | 9 kts | 303° |
| 2026-05-04 20:00 | 52.32930 | 4.70890 | -4 ft | 0 kts | 1° |
| 2026-05-04 20:00 | 52.33125 | 4.70908 | -7 ft | 67 kts | 2° |
| 2026-05-04 20:01 | 52.33808 | 4.70971 | -1 ft | 128 kts | 3° |
| 2026-05-04 20:01 | 52.34856 | 4.71068 | 162 ft | 159 kts | 5° |
| 2026-05-04 20:01 | 52.35919 | 4.71169 | 951 ft | 150 kts | 4° |
| 2026-05-04 20:01 | 52.36955 | 4.71275 | 1659 ft | 149 kts | 6° |
| 2026-05-04 20:02 | 52.37992 | 4.71394 | 2306 ft | 150 kts | 6° |
| 2026-05-04 20:02 | 52.39108 | 4.71516 | 2667 ft | 171 kts | 4° |
| 2026-05-04 20:02 | 52.40363 | 4.71619 | 3070 ft | 189 kts | 3° |
| 2026-05-04 20:02 | 52.41730 | 4.71722 | 3515 ft | 204 kts | 2° |
| 2026-05-04 20:03 | 52.43216 | 4.71839 | 3935 ft | 225 kts | 2° |
| 2026-05-04 20:03 | 52.44855 | 4.72013 | 4446 ft | 246 kts | 3° |
| 2026-05-04 20:03 | 52.46627 | 4.72239 | 5042 ft | 264 kts | 3° |
| 2026-05-04 20:03 | 52.48480 | 4.72464 | 5856 ft | 274 kts | 2° |
| 2026-05-04 20:04 | 52.50390 | 4.72652 | 5888 ft | 274 kts | 2° |
| 2026-05-04 20:04 | 52.52291 | 4.72856 | 6122 ft | 278 kts | 2° |
| 2026-05-04 20:04 | 52.54196 | 4.73049 | 7161 ft | 275 kts | 360° |
| 2026-05-04 20:04 | 52.56086 | 4.72557 | 7935 ft | 279 kts | 336° |
| 2026-05-04 20:05 | 52.57702 | 4.70796 | 8786 ft | 281 kts | 312° |
| 2026-05-04 20:05 | 52.58745 | 4.68101 | 9691 ft | 282 kts | 289° |
| 2026-05-04 20:05 | 52.59099 | 4.64928 | 10523 ft | 285 kts | 271° |
| 2026-05-04 20:05 | 52.59072 | 4.61557 | 10916 ft | 306 kts | 263° |
| 2026-05-04 20:06 | 52.58524 | 4.58067 | 11229 ft | 327 kts | 247° |
| 2026-05-04 20:06 | 52.57305 | 4.54784 | 11460 ft | 349 kts | 231° |
| 2026-05-04 20:06 | 52.55424 | 4.52136 | 11897 ft | 364 kts | 211° |
| 2026-05-04 20:06 | 52.53075 | 4.50461 | 12530 ft | 372 kts | 202° |
| 2026-05-04 20:07 | 52.50639 | 4.48943 | 13179 ft | 378 kts | 202° |
| 2026-05-04 20:07 | 52.48187 | 4.47316 | 13868 ft | 381 kts | 205° |
| 2026-05-04 20:07 | 52.45744 | 4.45590 | 14527 ft | 384 kts | 205° |
| 2026-05-04 20:07 | 52.43313 | 4.43741 | 15175 ft | 386 kts | 210° |
| 2026-05-04 20:08 | 52.41100 | 4.41250 | 15818 ft | 388 kts | 221° |
| 2026-05-04 20:08 | 52.39177 | 4.38149 | 16452 ft | 389 kts | 231° |
| 2026-05-04 20:08 | 52.37619 | 4.34523 | 17089 ft | 391 kts | 241° |
| 2026-05-04 20:08 | 52.36317 | 4.30592 | 17704 ft | 394 kts | 242° |
| 2026-05-04 20:09 | 52.35019 | 4.26629 | 18361 ft | 396 kts | 243° |
| 2026-05-04 20:09 | 52.33716 | 4.22646 | 18887 ft | 399 kts | 243° |
| 2026-05-04 20:09 | 52.32402 | 4.18638 | 19382 ft | 402 kts | 242° |
| 2026-05-04 20:09 | 52.30963 | 4.14702 | 19895 ft | 405 kts | 236° |
| 2026-05-04 20:10 | 52.29242 | 4.11040 | 20420 ft | 407 kts | 233° |
| 2026-05-04 20:10 | 52.27496 | 4.07384 | 20896 ft | 410 kts | 233° |
| 2026-05-04 20:10 | 52.25735 | 4.03702 | 21372 ft | 413 kts | 233° |
| 2026-05-04 20:10 | 52.23965 | 3.99999 | 21849 ft | 415 kts | 233° |
| 2026-05-04 20:11 | 52.22207 | 3.96329 | 22302 ft | 417 kts | 233° |
| 2026-05-04 20:11 | 52.20388 | 3.92541 | 22747 ft | 420 kts | 233° |
| 2026-05-04 20:11 | 52.18585 | 3.88790 | 23221 ft | 421 kts | 233° |
| 2026-05-04 20:11 | 52.16771 | 3.85022 | 23648 ft | 424 kts | 233° |
| 2026-05-04 20:12 | 52.14951 | 3.81231 | 24009 ft | 426 kts | 233° |
| 2026-05-04 20:12 | 52.13120 | 3.77429 | 24398 ft | 427 kts | 233° |
| 2026-05-04 20:12 | 52.11280 | 3.73626 | 24760 ft | 429 kts | 232° |
| 2026-05-04 20:12 | 52.09428 | 3.69804 | 25096 ft | 431 kts | 232° |
| 2026-05-04 20:13 | 52.07571 | 3.65974 | 25458 ft | 432 kts | 232° |
| 2026-05-04 20:13 | 52.05711 | 3.62137 | 25796 ft | 434 kts | 232° |
| 2026-05-04 20:13 | 52.03837 | 3.58278 | 26085 ft | 436 kts | 231° |
| 2026-05-04 20:13 | 52.01952 | 3.54407 | 26418 ft | 437 kts | 231° |
| 2026-05-04 20:14 | 52.00085 | 3.50583 | 26726 ft | 439 kts | 231° |
| 2026-05-04 20:14 | 51.98201 | 3.46662 | 26991 ft | 442 kts | 232° |
| 2026-05-04 20:14 | 51.96329 | 3.42599 | 27262 ft | 444 kts | 233° |
| 2026-05-04 20:14 | 51.94509 | 3.38538 | 27556 ft | 446 kts | 233° |
| 2026-05-04 20:15 | 51.92694 | 3.34443 | 27847 ft | 448 kts | 233° |
| 2026-05-04 20:15 | 51.90879 | 3.30354 | 28263 ft | 446 kts | 233° |
| 2026-05-04 20:15 | 51.89061 | 3.26285 | 28683 ft | 445 kts | 232° |
| 2026-05-04 20:15 | 51.87269 | 3.22202 | 29089 ft | 445 kts | 236° |
| 2026-05-04 20:16 | 51.85814 | 3.17785 | 29509 ft | 446 kts | 245° |
| 2026-05-04 20:16 | 51.84822 | 3.13019 | 29931 ft | 449 kts | 254° |
| 2026-05-04 20:16 | 51.84322 | 3.08030 | 30318 ft | 451 kts | 261° |
| 2026-05-04 20:16 | 51.84006 | 3.03004 | 30688 ft | 449 kts | 261° |
| 2026-05-04 20:17 | 51.83686 | 2.97993 | 31084 ft | 447 kts | 261° |
| 2026-05-04 20:17 | 51.83359 | 2.93005 | 31478 ft | 445 kts | 261° |
| 2026-05-04 20:17 | 51.83029 | 2.88044 | 31930 ft | 442 kts | 261° |
| 2026-05-04 20:17 | 51.82700 | 2.83121 | 32382 ft | 439 kts | 261° |
| 2026-05-04 20:18 | 51.82369 | 2.78223 | 32794 ft | 437 kts | 261° |
| 2026-05-04 20:18 | 51.82035 | 2.73343 | 33197 ft | 436 kts | 261° |
| 2026-05-04 20:18 | 51.81702 | 2.68481 | 33594 ft | 435 kts | 261° |
| 2026-05-04 20:18 | 51.81372 | 2.63631 | 33964 ft | 434 kts | 262° |
| 2026-05-04 20:19 | 51.81041 | 2.58785 | 34023 ft | 434 kts | 261° |
| 2026-05-04 20:19 | 51.80363 | 2.49080 | 34033 ft | 435 kts | 261° |
| 2026-05-04 20:20 | 51.79676 | 2.39377 | 34035 ft | 436 kts | 262° |
| 2026-05-04 20:20 | 51.78983 | 2.29636 | 34038 ft | 437 kts | 262° |
| 2026-05-04 20:21 | 51.78288 | 2.19959 | 34035 ft | 438 kts | 262° |
| 2026-05-04 20:21 | 51.77425 | 2.05185 | 34035 ft | 438 kts | 263° |
| 2026-05-04 20:22 | 51.76872 | 1.95388 | 34029 ft | 438 kts | 263° |
| 2026-05-04 20:22 | 51.76290 | 1.85675 | 34043 ft | 437 kts | 263° |
| 2026-05-04 20:23 | 51.75681 | 1.75844 | 34036 ft | 437 kts | 263° |
| 2026-05-04 20:23 | 51.75061 | 1.66083 | 34037 ft | 437 kts | 263° |
| 2026-05-04 20:24 | 51.74452 | 1.56444 | 34042 ft | 426 kts | 262° |
| 2026-05-04 20:24 | 51.73855 | 1.47030 | 34047 ft | 415 kts | 262° |
| 2026-05-04 20:25 | 51.73260 | 1.37844 | 34048 ft | 414 kts | 262° |
| 2026-05-04 20:25 | 51.72652 | 1.28623 | 34048 ft | 413 kts | 262° |
| 2026-05-04 20:26 | 51.72038 | 1.19404 | 34048 ft | 413 kts | 262° |
| 2026-05-04 20:26 | 51.71423 | 1.10187 | 34049 ft | 413 kts | 262° |
| 2026-05-04 20:27 | 51.70796 | 1.00979 | 34047 ft | 413 kts | 262° |
| 2026-05-04 20:27 | 51.70161 | 0.91775 | 34048 ft | 413 kts | 262° |
| 2026-05-04 20:28 | 51.69524 | 0.82574 | 34042 ft | 413 kts | 262° |
| 2026-05-04 20:28 | 51.68879 | 0.73367 | 34038 ft | 414 kts | 262° |
| 2026-05-04 20:29 | 51.68223 | 0.64156 | 34034 ft | 414 kts | 262° |
| 2026-05-04 20:29 | 51.67558 | 0.54950 | 34033 ft | 414 kts | 262° |
| 2026-05-04 20:30 | 51.66884 | 0.45738 | 34040 ft | 414 kts | 261° |
| 2026-05-04 20:30 | 51.66210 | 0.36524 | 34042 ft | 415 kts | 261° |
| 2026-05-04 20:31 | 51.65524 | 0.27298 | 34030 ft | 415 kts | 261° |
| 2026-05-04 20:31 | 51.64827 | 0.18065 | 34036 ft | 415 kts | 261° |
| 2026-05-04 20:32 | 51.64027 | 0.08857 | 34037 ft | 415 kts | 259° |
| 2026-05-04 20:32 | 51.63004 | -0.00343 | 34037 ft | 415 kts | 258° |
| 2026-05-04 20:33 | 51.61950 | -0.09491 | 34033 ft | 416 kts | 257° |
| 2026-05-04 20:33 | 51.61027 | -0.18694 | 34048 ft | 417 kts | 260° |
| 2026-05-04 20:34 | 51.60306 | -0.27989 | 34028 ft | 423 kts | 261° |
| 2026-05-04 20:34 | 51.59699 | -0.35936 | 34029 ft | 438 kts | 261° |
| 2026-05-04 20:35 | 51.58903 | -0.45715 | 34028 ft | 443 kts | 260° |
| 2026-05-04 20:35 | 51.58486 | -0.50623 | 33859 ft | 444 kts | 260° |
| 2026-05-04 20:35 | 51.58064 | -0.55531 | 33585 ft | 444 kts | 260° |
| 2026-05-04 20:36 | 51.57638 | -0.60445 | 33305 ft | 444 kts | 260° |
| 2026-05-04 20:36 | 51.57211 | -0.65361 | 33034 ft | 444 kts | 260° |
| 2026-05-04 20:36 | 51.56785 | -0.70272 | 32529 ft | 444 kts | 259° |
| 2026-05-04 20:36 | 51.56353 | -0.75235 | 31400 ft | 451 kts | 259° |
| 2026-05-04 20:37 | 51.55916 | -0.80233 | 30381 ft | 454 kts | 259° |
| 2026-05-04 20:37 | 51.55471 | -0.85284 | 29102 ft | 457 kts | 258° |
| 2026-05-04 20:37 | 51.55035 | -0.90282 | 27997 ft | 448 kts | 259° |
| 2026-05-04 20:37 | 51.54605 | -0.95214 | 26791 ft | 445 kts | 259° |
| 2026-05-04 20:38 | 51.54168 | -1.00144 | 25614 ft | 447 kts | 259° |
| 2026-05-04 20:38 | 51.53721 | -1.05088 | 24433 ft | 445 kts | 259° |
| 2026-05-04 20:38 | 51.53274 | -1.10011 | 22930 ft | 450 kts | 260° |
| 2026-05-04 20:38 | 51.53017 | -1.15070 | 22235 ft | 459 kts | 268° |
| 2026-05-04 20:39 | 51.53200 | -1.20193 | 21532 ft | 460 kts | 277° |
| 2026-05-04 20:39 | 51.53770 | -1.25252 | 20994 ft | 460 kts | 280° |
| 2026-05-04 20:39 | 51.54372 | -1.30281 | 20414 ft | 458 kts | 279° |
| 2026-05-04 20:39 | 51.54965 | -1.35272 | 19808 ft | 453 kts | 279° |
| 2026-05-04 20:40 | 51.55547 | -1.40224 | 19234 ft | 449 kts | 279° |
| 2026-05-04 20:40 | 51.56120 | -1.45137 | 18661 ft | 445 kts | 279° |
| 2026-05-04 20:40 | 51.56676 | -1.49944 | 18069 ft | 441 kts | 279° |
| 2026-05-04 20:40 | 51.57238 | -1.54816 | 17490 ft | 435 kts | 280° |
| 2026-05-04 20:41 | 51.57786 | -1.59579 | 16936 ft | 431 kts | 279° |
| 2026-05-04 20:41 | 51.58331 | -1.64293 | 16423 ft | 425 kts | 279° |
| 2026-05-04 20:41 | 51.58809 | -1.68882 | 16275 ft | 407 kts | 277° |
| 2026-05-04 20:41 | 51.59167 | -1.73198 | 16132 ft | 382 kts | 276° |
| 2026-05-04 20:42 | 51.59448 | -1.77312 | 16008 ft | 358 kts | 275° |
| 2026-05-04 20:42 | 51.59690 | -1.81175 | 15880 ft | 337 kts | 275° |
| 2026-05-04 20:42 | 51.59805 | -1.84827 | 15753 ft | 318 kts | 267° |
| 2026-05-04 20:42 | 51.59551 | -1.88252 | 15625 ft | 300 kts | 257° |
| 2026-05-04 20:43 | 51.59004 | -1.91398 | 15498 ft | 284 kts | 249° |
| 2026-05-04 20:43 | 51.58215 | -1.94238 | 15290 ft | 274 kts | 240° |
| 2026-05-04 20:43 | 51.57232 | -1.96816 | 14864 ft | 269 kts | 236° |
| 2026-05-04 20:43 | 51.56220 | -1.99340 | 14386 ft | 268 kts | 236° |
| 2026-05-04 20:44 | 51.55230 | -2.01802 | 14214 ft | 255 kts | 236° |
| 2026-05-04 20:44 | 51.54298 | -2.04127 | 14073 ft | 241 kts | 236° |
| 2026-05-04 20:44 | 51.53406 | -2.06359 | 13815 ft | 235 kts | 236° |
| 2026-05-04 20:44 | 51.52620 | -2.08649 | 13427 ft | 234 kts | 244° |
| 2026-05-04 20:45 | 51.52040 | -2.11080 | 13047 ft | 232 kts | 249° |
| 2026-05-04 20:45 | 51.51499 | -2.13509 | 12670 ft | 230 kts | 249° |
| 2026-05-04 20:45 | 51.50956 | -2.15914 | 12304 ft | 228 kts | 249° |
| 2026-05-04 20:45 | 51.50413 | -2.18295 | 11919 ft | 226 kts | 249° |
| 2026-05-04 20:46 | 51.49874 | -2.20656 | 11569 ft | 224 kts | 249° |
| 2026-05-04 20:46 | 51.49342 | -2.22993 | 11214 ft | 222 kts | 249° |
| 2026-05-04 20:46 | 51.48815 | -2.25311 | 10876 ft | 220 kts | 249° |
| 2026-05-04 20:46 | 51.48292 | -2.27610 | 10527 ft | 218 kts | 249° |
| 2026-05-04 20:47 | 51.47775 | -2.29887 | 10191 ft | 217 kts | 249° |
| 2026-05-04 20:47 | 51.47260 | -2.32153 | 9831 ft | 215 kts | 249° |
| 2026-05-04 20:47 | 51.46747 | -2.34398 | 9470 ft | 214 kts | 249° |
| 2026-05-04 20:47 | 51.46236 | -2.36630 | 9087 ft | 213 kts | 249° |
| 2026-05-04 20:48 | 51.45726 | -2.38863 | 8704 ft | 213 kts | 249° |
| 2026-05-04 20:48 | 51.45218 | -2.41080 | 8334 ft | 211 kts | 249° |
| 2026-05-04 20:48 | 51.44709 | -2.43296 | 7898 ft | 214 kts | 249° |
| 2026-05-04 20:48 | 51.44174 | -2.45620 | 7203 ft | 229 kts | 250° |
| 2026-05-04 20:49 | 51.43621 | -2.48025 | 6840 ft | 231 kts | 250° |
| 2026-05-04 20:49 | 51.43067 | -2.50442 | 6538 ft | 231 kts | 250° |
| 2026-05-04 20:49 | 51.42514 | -2.52852 | 6220 ft | 230 kts | 250° |
| 2026-05-04 20:49 | 51.41962 | -2.55254 | 5909 ft | 229 kts | 250° |
| 2026-05-04 20:50 | 51.41410 | -2.57648 | 5600 ft | 229 kts | 250° |
| 2026-05-04 20:50 | 51.40858 | -2.60030 | 5285 ft | 228 kts | 251° |
| 2026-05-04 20:50 | 51.40305 | -2.62407 | 4992 ft | 227 kts | 251° |
| 2026-05-04 20:50 | 51.39754 | -2.64783 | 4693 ft | 227 kts | 251° |
| 2026-05-04 20:51 | 51.39204 | -2.67162 | 4347 ft | 228 kts | 251° |
| 2026-05-04 20:51 | 51.38657 | -2.69528 | 4200 ft | 227 kts | 251° |
| 2026-05-04 20:51 | 51.38317 | -2.71982 | 4067 ft | 227 kts | 271° |
| 2026-05-04 20:51 | 51.38570 | -2.74448 | 3934 ft | 225 kts | 287° |
| 2026-05-04 20:52 | 51.38968 | -2.76866 | 3815 ft | 225 kts | 286° |
| 2026-05-04 20:52 | 51.39358 | -2.79292 | 3688 ft | 225 kts | 286° |
| 2026-05-04 20:52 | 51.39746 | -2.81719 | 3555 ft | 225 kts | 286° |
| 2026-05-04 20:52 | 51.40132 | -2.84147 | 3432 ft | 225 kts | 286° |
| 2026-05-04 20:53 | 51.40516 | -2.86581 | 3299 ft | 225 kts | 286° |
| 2026-05-04 20:53 | 51.40900 | -2.89012 | 3170 ft | 225 kts | 286° |
| 2026-05-04 20:53 | 51.41282 | -2.91439 | 3041 ft | 225 kts | 286° |
| 2026-05-04 20:53 | 51.41656 | -2.93831 | 2907 ft | 217 kts | 284° |
| 2026-05-04 20:54 | 51.41600 | -2.96172 | 2776 ft | 209 kts | 247° |
| 2026-05-04 20:54 | 51.40702 | -2.97892 | 2640 ft | 200 kts | 207° |
| 2026-05-04 20:54 | 51.39416 | -2.98370 | 2559 ft | 185 kts | 169° |
| 2026-05-04 20:54 | 51.38346 | -2.97513 | 2481 ft | 167 kts | 128° |
| 2026-05-04 20:55 | 51.37778 | -2.95949 | 2497 ft | 161 kts | 112° |
| 2026-05-04 20:55 | 51.37458 | -2.94342 | 2489 ft | 145 kts | 89° |
| 2026-05-04 20:55 | 51.37485 | -2.92776 | 2504 ft | 135 kts | 86° |
| 2026-05-04 20:55 | 51.37518 | -2.91309 | 2501 ft | 130 kts | 85° |
| 2026-05-04 20:56 | 51.37563 | -2.89873 | 2498 ft | 129 kts | 84° |
| 2026-05-04 20:56 | 51.37614 | -2.88443 | 2445 ft | 129 kts | 84° |
| 2026-05-04 20:56 | 51.37668 | -2.87036 | 2328 ft | 128 kts | 84° |
| 2026-05-04 20:56 | 51.37723 | -2.85625 | 2183 ft | 127 kts | 84° |
| 2026-05-04 20:57 | 51.37779 | -2.84207 | 2019 ft | 126 kts | 84° |
| 2026-05-04 20:57 | 51.37834 | -2.82830 | 1851 ft | 125 kts | 83° |
| 2026-05-04 20:57 | 51.37891 | -2.81438 | 1690 ft | 125 kts | 83° |
| 2026-05-04 20:57 | 51.37951 | -2.80027 | 1487 ft | 126 kts | 83° |
| 2026-05-04 20:58 | 51.38008 | -2.78632 | 1307 ft | 125 kts | 83° |
| 2026-05-04 20:58 | 51.38059 | -2.77237 | 1153 ft | 126 kts | 84° |
| 2026-05-04 20:58 | 51.38116 | -2.75830 | 961 ft | 127 kts | 83° |
| 2026-05-04 20:58 | 51.38169 | -2.74432 | 800 ft | 128 kts | 85° |
| 2026-05-04 20:59 | 51.38222 | -2.73023 | 636 ft | 125 kts | 84° |
| 2026-05-04 20:59 | 51.38270 | -2.71838 | 612 ft | 75 kts | 86° |
| 2026-05-04 20:59 | 51.38294 | -2.71469 | 604 ft | 12 kts | 46° |
| 2026-05-04 20:59 | 51.38361 | -2.71495 | 608 ft | 10 kts | 326° |
| 2026-05-04 21:00 | 51.38404 | -2.71533 | 606 ft | 4 kts | 345° |
| 2026-05-04 21:00 | 51.38411 | -2.71534 | 618 ft | 0 kts | 355° |
| 2026-05-04 21:00 | 51.38416 | -2.71534 | 616 ft | 1 kts | 2° |
| 2026-05-04 21:00 | 51.38430 | -2.71526 | 608 ft | 4 kts | 24° |
| 2026-05-04 21:01 | 51.38442 | -2.71496 | 620 ft | 4 kts | 74° |
| 2026-05-04 21:01 | 51.38451 | -2.71476 | 615 ft | 1 kts | 39° |
| 2026-05-04 21:01 | 51.38462 | -2.71471 | 613 ft | 2 kts | 9° |
| 2026-05-04 21:01 | 51.38494 | -2.71474 | 612 ft | 7 kts | 357° |
| 2026-05-04 21:02 | 51.38531 | -2.71478 | 612 ft | 3 kts | 356° |
| 2026-05-04 21:02 | 51.38538 | -2.71479 | 612 ft | 0 kts | 356° |